Time;durP1;ratioP1;P1;durP2;ratioP2;P2;SDS_P1;SDS_P2;PMS_P1;PMS_P2;Temp;Humidity;BMP_temperature;BMP_pressure;BME280_temperature;BME280_humidity;BME280_pressure;Samples;Min_cycle;Max_cycle;Signal;HPM_P1;HPM_P2
2021/08/09 00:00:15;;;;;;;59.63;2.70;;;13.40;1.00;;;;;;5070735;28;20970;-74
2021/08/09 00:02:43;;;;;;;58.37;2.80;;;13.30;1.00;;;;;;5071259;28;20504;-74
2021/08/09 00:05:11;;;;;;;58.27;2.80;;;13.30;1.00;;;;;;5071161;28;20947;-74
2021/08/09 00:07:37;;;;;;;58.37;2.53;;;13.30;1.00;;;;;;5071821;28;20825;-74
2021/08/09 00:10:05;;;;;;;58.27;2.63;;;13.30;1.00;;;;;;5074080;28;20497;-74
2021/08/09 00:12:32;;;;;;;58.50;2.80;;;13.30;1.00;;;;;;5074477;28;20489;-74
2021/08/09 00:14:59;;;;;;;58.13;2.60;;;13.20;1.00;;;;;;5074772;28;20533;-74
2021/08/09 00:17:26;;;;;;;58.37;2.80;;;13.20;1.00;;;;;;5074530;28;20475;-74
2021/08/09 00:19:54;;;;;;;58.67;3.30;;;13.20;1.00;;;;;;5074142;28;20540;-74
2021/08/09 00:22:21;;;;;;;58.17;2.50;;;13.20;1.00;;;;;;5074292;28;20600;-74
2021/08/09 00:24:48;;;;;;;58.40;2.60;;;13.20;1.00;;;;;;5074238;28;20534;-74
2021/08/09 00:27:14;;;;;;;58.17;2.70;;;13.20;1.00;;;;;;5074357;28;20455;-74
2021/08/09 00:29:41;;;;;;;58.33;2.63;;;13.10;1.00;;;;;;5074149;28;20526;-74
2021/08/09 00:32:08;;;;;;;58.17;2.60;;;13.10;1.00;;;;;;5074358;28;20510;-74
2021/08/09 00:34:35;;;;;;;58.37;2.73;;;13.10;1.00;;;;;;5074093;28;20573;-74
2021/08/09 00:37:04;;;;;;;58.23;2.80;;;13.10;1.00;;;;;;5073944;28;20478;-74
2021/08/09 00:39:31;;;;;;;58.07;2.77;;;13.10;1.00;;;;;;5074046;28;20482;-74
2021/08/09 00:41:59;;;;;;;58.43;2.70;;;13.10;1.00;;;;;;5074092;28;20987;-74
2021/08/09 00:44:26;;;;;;;58.30;2.60;;;13.10;1.00;;;;;;5074031;28;20451;-75
2021/08/09 00:46:53;;;;;;;58.37;2.60;;;13.10;1.00;;;;;;5073885;28;20455;-74
2021/08/09 00:49:20;;;;;;;58.37;2.60;;;13.00;1.00;;;;;;5073731;28;20447;-74
2021/08/09 00:51:47;;;;;;;58.70;2.80;;;13.00;1.00;;;;;;5074000;28;20558;-74
2021/08/09 00:54:15;;;;;;;57.87;2.60;;;13.00;1.00;;;;;;5073679;28;20783;-74
2021/08/09 00:56:42;;;;;;;58.33;2.80;;;13.00;1.00;;;;;;5073842;28;20546;-74
2021/08/09 00:59:09;;;;;;;58.20;2.53;;;12.90;1.00;;;;;;5073615;28;20538;-75
2021/08/09 01:01:36;;;;;;;58.47;2.70;;;12.90;1.00;;;;;;5073467;28;20634;-75
2021/08/09 01:04:03;;;;;;;58.33;2.70;;;12.90;1.00;;;;;;5073590;28;20538;-75
2021/08/09 01:06:30;;;;;;;58.40;2.80;;;12.90;1.00;;;;;;5073716;28;20860;-74
2021/08/09 01:09:07;;;;;;;58.23;2.60;;;12.80;1.00;;;;;;5073588;28;20479;-75
2021/08/09 01:11:41;;;;;;;58.23;2.57;;;12.80;1.00;;;;;;5073529;28;20481;-75
2021/08/09 01:14:23;;;;;;;58.27;2.40;;;12.80;1.00;;;;;;5073583;28;20906;-74
2021/08/09 01:16:50;;;;;;;58.17;2.57;;;12.70;1.00;;;;;;5073476;28;20440;-75
2021/08/09 01:19:27;;;;;;;58.17;2.50;;;12.70;1.00;;;;;;5073019;28;20538;-74
2021/08/09 01:22:02;;;;;;;58.60;3.10;;;12.70;1.00;;;;;;5073375;28;20479;-74
2021/08/09 01:24:35;;;;;;;58.50;2.80;;;12.60;1.00;;;;;;5073333;28;20876;-74
2021/08/09 01:27:11;;;;;;;58.40;2.60;;;12.60;1.00;;;;;;5073058;28;20455;-74
2021/08/09 01:29:44;;;;;;;58.33;2.60;;;12.60;1.00;;;;;;5073184;28;20453;-74
2021/08/09 01:32:12;;;;;;;58.20;2.70;;;12.60;1.00;;;;;;5072932;28;20977;-74
2021/08/09 01:34:39;;;;;;;58.50;2.67;;;12.50;1.00;;;;;;5072988;28;20486;-74
2021/08/09 01:37:06;;;;;;;58.40;2.60;;;12.50;1.00;;;;;;5072902;28;20447;-74
2021/08/09 01:39:34;;;;;;;58.37;2.57;;;12.40;1.00;;;;;;5072617;28;20901;-75
2021/08/09 01:42:02;;;;;;;58.27;2.67;;;12.40;1.00;;;;;;5072608;28;20467;-74
2021/08/09 01:44:29;;;;;;;58.23;2.50;;;12.30;1.00;;;;;;5072984;28;20439;-74
2021/08/09 01:46:58;;;;;;;58.47;2.60;;;12.30;1.00;;;;;;5072870;28;20534;-75
2021/08/09 01:49:25;;;;;;;58.47;2.70;;;12.30;1.00;;;;;;5070480;28;20453;-75
2021/08/09 01:51:52;;;;;;;58.37;2.60;;;12.30;1.00;;;;;;5072768;28;20546;-74
2021/08/09 01:54:20;;;;;;;58.50;2.80;;;12.30;1.00;;;;;;5072645;28;20566;-74
2021/08/09 01:56:47;;;;;;;58.33;2.70;;;12.30;1.00;;;;;;5072456;28;20606;-74
2021/08/09 01:59:13;;;;;;;58.27;2.70;;;12.30;1.00;;;;;;5072201;28;20439;-74
2021/08/09 02:01:41;;;;;;;58.77;3.00;;;12.30;1.00;;;;;;5072431;28;20467;-74
2021/08/09 02:04:09;;;;;;;58.33;2.80;;;12.30;1.00;;;;;;5072334;28;20538;-74
2021/08/09 02:06:36;;;;;;;58.43;2.60;;;12.30;1.00;;;;;;5072514;28;20447;-74
2021/08/09 02:09:03;;;;;;;59.00;3.33;;;12.30;1.00;;;;;;5072290;28;20558;-75
2021/08/09 02:11:46;;;;;;;58.47;2.60;;;12.30;1.00;;;;;;5071973;28;20558;-75
2021/08/09 02:14:16;;;;;;;58.40;2.50;;;12.30;1.00;;;;;;5072280;28;20566;-75
2021/08/09 02:16:49;;;;;;;58.50;2.60;;;12.30;1.00;;;;;;5072038;28;20542;-75
2021/08/09 02:19:22;;;;;;;58.33;2.70;;;12.30;1.00;;;;;;5072174;28;20443;-75
2021/08/09 02:21:58;;;;;;;58.37;2.73;;;12.30;1.00;;;;;;5072134;28;20514;-75
2021/08/09 02:24:31;;;;;;;58.40;2.60;;;12.30;1.00;;;;;;5072142;28;20451;-74
2021/08/09 02:27:02;;;;;;;58.27;2.60;;;12.30;1.00;;;;;;5071925;28;20451;-75
2021/08/09 02:29:33;;;;;;;58.07;2.50;;;12.30;1.00;;;;;;5071906;28;20498;-75
2021/08/09 02:32:02;;;;;;;58.23;2.50;;;12.30;1.00;;;;;;5071726;28;20473;-74
2021/08/09 02:34:34;;;;;;;58.57;2.70;;;12.30;1.00;;;;;;5071981;28;20483;-75
2021/08/09 02:37:02;;;;;;;58.60;2.50;;;12.20;1.00;;;;;;5071919;28;20533;-74
2021/08/09 02:39:31;;;;;;;58.50;2.50;;;12.20;1.00;;;;;;5071627;28;20538;-74
2021/08/09 02:41:58;;;;;;;58.47;2.90;;;12.20;1.00;;;;;;5071884;28;20494;-74
2021/08/09 02:44:25;;;;;;;58.27;2.40;;;12.20;1.00;;;;;;5071984;28;20899;-74
2021/08/09 02:46:54;;;;;;;58.23;2.50;;;12.10;1.00;;;;;;5071923;28;20450;-74
2021/08/09 02:49:20;;;;;;;58.37;2.50;;;12.10;1.00;;;;;;5071696;28;20898;-74
2021/08/09 02:51:49;;;;;;;58.47;2.43;;;12.00;1.00;;;;;;5071766;28;20506;-74
2021/08/09 02:54:18;;;;;;;58.57;2.67;;;12.00;1.00;;;;;;5071919;28;20565;-74
2021/08/09 02:56:46;;;;;;;58.30;2.60;;;12.00;1.00;;;;;;5071869;28;20886;-74
2021/08/09 02:59:13;;;;;;;58.33;2.50;;;12.00;1.00;;;;;;5071461;28;21002;-74
2021/08/09 03:01:41;;;;;;;58.33;2.80;;;12.00;1.00;;;;;;5071502;28;20498;-74
2021/08/09 03:04:11;;;;;;;58.40;2.50;;;12.00;1.00;;;;;;5071539;28;20451;-74
2021/08/09 03:06:40;;;;;;;58.80;3.43;;;12.00;1.00;;;;;;5071576;28;20537;-74
2021/08/09 03:09:09;;;;;;;58.53;2.50;;;11.90;1.00;;;;;;5071554;28;20447;-74
2021/08/09 03:11:36;;;;;;;58.37;2.43;;;11.90;1.00;;;;;;5071714;28;20558;-74
2021/08/09 03:14:03;;;;;;;58.17;2.50;;;11.90;1.00;;;;;;5071655;28;20479;-74
2021/08/09 03:16:30;;;;;;;58.23;2.37;;;11.90;1.00;;;;;;5071595;28;20538;-74
2021/08/09 03:18:57;;;;;;;58.23;2.43;;;11.80;1.00;;;;;;5071478;28;20537;-74
2021/08/09 03:21:24;;;;;;;58.83;2.70;;;11.80;1.00;;;;;;5070929;28;20995;-74
2021/08/09 03:23:51;;;;;;;58.47;2.80;;;11.80;1.00;;;;;;5071720;28;20447;-74
2021/08/09 03:26:19;;;;;;;58.27;2.50;;;11.80;1.00;;;;;;5071582;28;20526;-74
2021/08/09 03:28:46;;;;;;;58.37;2.70;;;11.80;1.00;;;;;;5071447;28;20534;-74
2021/08/09 03:31:13;;;;;;;58.27;2.50;;;11.80;1.00;;;;;;5071161;28;20510;-74
2021/08/09 03:33:39;;;;;;;58.97;2.80;;;11.80;1.00;;;;;;5071304;28;20554;-74
2021/08/09 03:36:07;;;;;;;58.50;2.60;;;11.70;1.00;;;;;;5071329;28;20526;-74
2021/08/09 03:38:33;;;;;;;58.37;2.70;;;11.70;1.00;;;;;;5071347;28;20477;-74
2021/08/09 03:41:00;;;;;;;58.37;2.50;;;11.70;1.00;;;;;;5071218;28;20471;-74
2021/08/09 03:43:28;;;;;;;58.13;2.60;;;11.70;1.00;;;;;;5075269;28;20451;-74
2021/08/09 03:45:55;;;;;;;58.40;2.60;;;11.70;1.00;;;;;;5075095;28;21034;-74
2021/08/09 03:48:22;;;;;;;58.27;2.60;;;11.70;1.00;;;;;;5074903;28;20493;-74
2021/08/09 03:50:49;;;;;;;58.17;2.60;;;11.70;1.00;;;;;;5074686;28;20463;-74
2021/08/09 03:53:16;;;;;;;58.23;2.60;;;11.70;1.00;;;;;;5075123;28;20450;-74
2021/08/09 03:55:43;;;;;;;58.23;2.60;;;11.70;1.00;;;;;;5074991;28;20571;-74
2021/08/09 04:01:38;;;;;;;58.37;2.50;;;11.70;1.00;;;;;;5073416;28;20422;-74
2021/08/09 04:04:06;;;;;;;58.27;2.53;;;11.80;1.00;;;;;;5074888;28;20447;-75
2021/08/09 04:06:33;;;;;;;58.27;2.60;;;11.80;1.00;;;;;;5074549;28;20546;-75
2021/08/09 04:09:00;;;;;;;58.47;2.60;;;11.80;1.00;;;;;;5074560;28;20978;-75
2021/08/09 04:11:27;;;;;;;58.17;2.67;;;11.80;1.00;;;;;;5074435;28;20520;-75
2021/08/09 04:13:55;;;;;;;58.50;2.50;;;11.80;1.00;;;;;;5074496;28;20539;-75
2021/08/09 04:16:22;;;;;;;58.40;2.57;;;11.90;1.00;;;;;;5074426;28;20485;-75
2021/08/09 04:18:50;;;;;;;58.23;2.50;;;11.80;1.00;;;;;;5074509;28;20490;-75
2021/08/09 04:21:17;;;;;;;58.17;2.40;;;11.80;1.00;;;;;;5073840;28;20517;-75
2021/08/09 04:23:44;;;;;;;58.47;2.67;;;11.80;1.00;;;;;;5074641;28;20537;-75
2021/08/09 04:26:11;;;;;;;58.07;2.60;;;11.80;1.00;;;;;;5074215;28;20447;-75
2021/08/09 04:28:38;;;;;;;58.23;2.50;;;11.80;1.00;;;;;;5074420;28;20542;-75
2021/08/09 04:31:05;;;;;;;58.50;2.60;;;11.80;1.00;;;;;;5074087;28;20502;-75
2021/08/09 04:33:31;;;;;;;58.27;2.70;;;11.70;1.00;;;;;;5074169;28;20888;-75
2021/08/09 04:36:00;;;;;;;58.37;2.57;;;11.70;1.00;;;;;;5073841;28;20570;-75
2021/08/09 04:38:26;;;;;;;58.20;2.50;;;11.70;1.00;;;;;;5074392;28;20542;-74
2021/08/09 04:40:53;;;;;;;58.60;2.70;;;11.70;1.00;;;;;;5073991;28;20495;-74
2021/08/09 04:43:20;;;;;;;58.33;2.80;;;11.70;1.00;;;;;;5074216;28;20498;-74
2021/08/09 04:45:48;;;;;;;58.07;2.47;;;11.70;1.00;;;;;;5074006;28;20518;-74
2021/08/09 04:48:15;;;;;;;58.43;2.53;;;11.70;1.00;;;;;;5074085;28;20458;-74
2021/08/09 04:50:42;;;;;;;58.47;2.50;;;11.70;1.00;;;;;;5073774;28;20562;-74
2021/08/09 04:53:10;;;;;;;58.60;3.10;;;11.70;1.00;;;;;;5073826;28;20502;-74
2021/08/09 04:55:37;;;;;;;58.10;2.63;;;11.70;1.00;;;;;;5074065;28;20566;-74
2021/08/09 04:58:04;;;;;;;58.33;2.50;;;11.80;1.00;;;;;;5073923;28;20533;-74
2021/08/09 05:00:31;;;;;;;58.27;2.80;;;11.80;1.00;;;;;;5073416;28;20886;-74
2021/08/09 05:02:58;;;;;;;58.13;2.60;;;11.80;1.00;;;;;;5073452;28;20872;-74
2021/08/09 05:05:25;;;;;;;58.33;2.60;;;11.80;1.00;;;;;;5073976;28;20538;-74
2021/08/09 05:07:54;;;;;;;58.27;2.73;;;11.90;1.00;;;;;;5073736;28;20483;-74
2021/08/09 05:10:23;;;;;;;58.80;3.10;;;11.90;1.00;;;;;;5073094;28;20486;-74
2021/08/09 05:12:50;;;;;;;58.33;2.70;;;11.90;1.00;;;;;;5073484;28;20534;-74
2021/08/09 05:15:18;;;;;;;58.27;2.60;;;12.00;1.00;;;;;;5073456;28;20479;-74
2021/08/09 05:17:45;;;;;;;58.23;2.50;;;12.00;1.00;;;;;;5073168;28;20962;-74
2021/08/09 05:20:12;;;;;;;58.47;2.80;;;12.10;1.00;;;;;;5073075;28;20447;-75
2021/08/09 05:22:39;;;;;;;58.47;2.70;;;12.00;1.00;;;;;;5073249;28;20542;-75
2021/08/09 05:25:09;;;;;;;58.10;2.67;;;12.10;1.00;;;;;;5073371;28;21051;-75
2021/08/09 05:27:39;;;;;;;58.37;2.80;;;12.10;1.00;;;;;;5073574;28;20529;-75
2021/08/09 05:30:07;;;;;;;58.37;2.67;;;12.20;1.00;;;;;;5072619;28;20478;-75
2021/08/09 05:32:35;;;;;;;58.90;3.77;;;12.20;1.00;;;;;;5059952;28;20487;-75
2021/08/09 05:35:02;;;;;;;58.50;2.70;;;12.20;1.00;;;;;;5052841;28;20492;-75
2021/08/09 05:37:31;;;;;;;57.97;2.50;;;12.20;1.00;;;;;;5055795;28;20451;-76
2021/08/09 05:39:58;;;;;;;58.47;2.80;;;12.30;1.00;;;;;;5072787;28;20451;-76
2021/08/09 05:42:25;;;;;;;58.33;2.77;;;12.30;1.00;;;;;;5072785;28;20558;-76
2021/08/09 05:44:54;;;;;;;57.97;2.50;;;12.30;1.00;;;;;;5072738;28;20539;-76
2021/08/09 05:47:21;;;;;;;58.50;3.10;;;12.30;1.00;;;;;;5072862;28;20883;-76
2021/08/09 05:49:48;;;;;;;58.37;2.60;;;12.30;1.00;;;;;;5072411;28;20459;-75
2021/08/09 05:52:20;;;;;;;58.17;2.57;;;12.40;1.00;;;;;;5072676;28;20471;-75
2021/08/09 05:54:47;;;;;;;58.37;2.90;;;12.40;1.00;;;;;;5072509;28;20583;-75
2021/08/09 05:57:14;;;;;;;58.10;2.50;;;12.50;1.00;;;;;;5072819;28;20487;-75
2021/08/09 05:59:41;;;;;;;58.27;2.47;;;12.50;1.00;;;;;;5072536;28;20526;-75
2021/08/09 06:02:09;;;;;;;58.07;2.60;;;12.50;1.00;;;;;;5072563;28;20471;-75
2021/08/09 06:04:36;;;;;;;58.07;2.90;;;12.60;1.00;;;;;;5071906;28;20487;-75
2021/08/09 06:07:03;;;;;;;58.20;2.50;;;12.60;1.00;;;;;;5071807;28;20454;-75
2021/08/09 06:09:30;;;;;;;58.40;2.60;;;12.70;1.00;;;;;;5069779;28;21058;-75
2021/08/09 06:11:57;;;;;;;58.17;2.60;;;12.70;1.00;;;;;;5072265;28;20506;-75
2021/08/09 06:14:23;;;;;;;58.27;2.80;;;12.80;1.00;;;;;;5072105;28;21045;-75
2021/08/09 06:16:51;;;;;;;58.47;2.50;;;12.90;1.00;;;;;;5071975;28;20521;-75
2021/08/09 06:19:19;;;;;;;58.27;2.60;;;13.00;1.00;;;;;;5071979;28;20534;-75
2021/08/09 06:21:46;;;;;;;58.37;2.70;;;13.00;1.00;;;;;;5072141;28;20565;-75
2021/08/09 06:24:13;;;;;;;58.03;2.40;;;13.10;1.00;;;;;;5071964;28;20550;-75
2021/08/09 06:26:40;;;;;;;57.97;2.40;;;13.20;1.00;;;;;;5072316;28;20542;-75
2021/08/09 06:29:07;;;;;;;58.17;2.50;;;13.30;1.00;;;;;;5071769;28;20538;-75
2021/08/09 06:31:34;;;;;;;58.03;2.43;;;13.40;1.00;;;;;;5071903;28;20502;-75
2021/08/09 06:34:00;;;;;;;57.97;2.37;;;13.50;1.00;;;;;;5071907;28;20486;-75
2021/08/09 06:36:29;;;;;;;58.17;2.50;;;13.60;1.00;;;;;;5072015;28;20575;-75
2021/08/09 06:38:56;;;;;;;57.97;2.50;;;13.70;1.00;;;;;;5071707;28;20533;-75
2021/08/09 06:41:25;;;;;;;58.07;2.30;;;13.80;1.00;;;;;;5070263;28;20506;-75
2021/08/09 06:43:52;;;;;;;57.87;2.40;;;13.90;1.00;;;;;;5071768;28;20447;-75
2021/08/09 06:46:19;;;;;;;58.07;2.50;;;14.00;1.00;;;;;;5071904;28;20461;-75
2021/08/09 06:48:46;;;;;;;57.83;2.30;;;14.20;1.00;;;;;;5071977;28;20482;-75
2021/08/09 06:51:12;;;;;;;57.77;2.33;;;14.30;1.00;;;;;;5071573;28;20499;-75
2021/08/09 06:53:41;;;;;;;63.60;2.67;;;14.40;1.00;;;;;;5071849;28;20479;-75
2021/08/09 06:56:07;;;;;;;58.07;2.50;;;14.50;1.00;;;;;;5072032;28;20518;-75
2021/08/09 06:58:34;;;;;;;58.10;2.60;;;14.70;1.00;;;;;;5071963;28;20554;-75
2021/08/09 07:01:01;;;;;;;58.20;2.43;;;14.80;1.00;;;;;;5071469;28;20499;-75
2021/08/09 07:03:28;;;;;;;58.27;2.50;;;14.90;1.00;;;;;;5072025;28;20475;-75
2021/08/09 07:05:55;;;;;;;57.97;2.50;;;15.10;1.00;;;;;;5071605;28;20534;-75
2021/08/09 07:08:22;;;;;;;58.07;2.50;;;15.20;1.00;;;;;;5071943;28;20486;-75
2021/08/09 07:10:51;;;;;;;58.10;2.40;;;15.30;1.00;;;;;;5071709;28;20554;-75
2021/08/09 07:13:18;;;;;;;58.00;2.60;;;15.40;1.00;;;;;;5071706;28;20448;-73
2021/08/09 07:15:45;;;;;;;58.10;2.60;;;15.60;1.00;;;;;;5071554;28;20486;-74
2021/08/09 07:18:12;;;;;;;58.20;2.50;;;15.70;1.00;;;;;;5075042;28;20521;-74
2021/08/09 07:20:39;;;;;;;58.13;2.43;;;15.90;1.00;;;;;;5075331;28;20517;-74
2021/08/09 07:23:06;;;;;;;58.10;2.50;;;16.00;1.00;;;;;;5075891;28;20591;-74
2021/08/09 07:25:33;;;;;;;58.07;2.43;;;16.10;1.00;;;;;;5075482;28;20484;-74
2021/08/09 07:28:01;;;;;;;57.97;2.40;;;16.30;1.00;;;;;;5075520;28;20453;-74
2021/08/09 07:30:28;;;;;;;57.97;2.33;;;16.50;1.00;;;;;;5075170;28;20508;-75
2021/08/09 07:32:55;;;;;;;57.87;2.33;;;16.60;1.00;;;;;;5075326;28;21029;-75
2021/08/09 07:35:24;;;;;;;58.20;2.60;;;16.90;1.00;;;;;;5075307;28;20521;-75
2021/08/09 07:37:52;;;;;;;57.87;2.20;;;17.10;1.00;;;;;;5075234;28;20455;-75
2021/08/09 07:40:19;;;;;;;58.07;2.23;;;17.20;1.00;;;;;;5075122;28;20461;-75
2021/08/09 07:42:46;;;;;;;57.97;2.40;;;17.30;1.00;;;;;;5075338;28;20456;-74
2021/08/09 07:45:14;;;;;;;57.67;2.40;;;17.40;1.00;;;;;;5075144;28;20567;-75
2021/08/09 07:47:41;;;;;;;58.20;2.20;;;17.40;1.00;;;;;;5074923;28;20543;-75
2021/08/09 07:50:08;;;;;;;58.17;2.90;;;17.50;1.00;;;;;;5074921;28;20987;-74
2021/08/09 07:52:35;;;;;;;58.10;2.50;;;17.50;1.00;;;;;;5075195;28;20485;-74
2021/08/09 07:55:02;;;;;;;57.67;2.30;;;17.60;1.00;;;;;;5074921;28;20458;-74
2021/08/09 07:57:29;;;;;;;57.90;2.30;;;17.80;1.00;;;;;;5075270;28;20442;-74
2021/08/09 07:59:56;;;;;;;58.07;2.40;;;17.90;1.00;;;;;;5074446;28;20450;-74
2021/08/09 08:02:24;;;;;;;58.07;2.20;;;18.00;1.00;;;;;;5074861;28;20505;-74
2021/08/09 08:04:51;;;;;;;58.10;2.33;;;18.10;1.00;;;;;;5074806;28;20533;-74
2021/08/09 08:07:18;;;;;;;58.47;3.53;;;18.30;1.00;;;;;;5074738;28;20474;-75
2021/08/09 08:09:45;;;;;;;57.77;2.30;;;18.40;1.00;;;;;;5074353;28;20974;-74
2021/08/09 08:12:12;;;;;;;58.10;2.23;;;18.50;1.00;;;;;;5074467;28;20470;-75
2021/08/09 08:14:38;;;;;;;57.67;2.30;;;18.60;1.00;;;;;;5074429;28;20493;-75
2021/08/09 08:17:05;;;;;;;58.27;2.30;;;18.70;1.00;;;;;;5074683;28;20493;-75
2021/08/09 08:19:33;;;;;;;58.00;2.10;;;18.70;1.00;;;;;;5074587;28;20537;-75
2021/08/09 08:22:00;;;;;;;57.57;2.10;;;18.80;1.00;;;;;;5074355;28;20484;-75
2021/08/09 08:24:28;;;;;;;57.43;2.20;;;18.90;1.00;;;;;;5074438;28;20943;-75
2021/08/09 08:26:55;;;;;;;57.47;2.00;;;19.00;1.00;;;;;;5074247;28;20829;-75
2021/08/09 08:29:22;;;;;;;58.20;2.20;;;19.10;1.00;;;;;;5072779;28;20534;-75
2021/08/09 08:31:49;;;;;;;57.97;2.20;;;19.20;1.00;;;;;;5074437;28;20488;-75
2021/08/09 08:34:16;;;;;;;57.67;2.20;;;19.30;1.00;;;;;;5074618;28;20538;-75
2021/08/09 08:36:44;;;;;;;57.67;2.20;;;19.50;1.00;;;;;;5074237;28;20581;-74
2021/08/09 08:39:11;;;;;;;57.97;2.30;;;19.60;1.00;;;;;;5073920;28;20454;-75
2021/08/09 08:41:42;;;;;;;58.20;2.40;;;19.70;1.00;;;;;;5074035;28;20954;-75
2021/08/09 08:44:09;;;;;;;57.83;2.40;;;19.70;1.00;;;;;;5074208;28;20451;-75
2021/08/09 08:46:37;;;;;;;57.77;2.40;;;19.80;1.00;;;;;;5074183;28;20448;-75
2021/08/09 08:49:05;;;;;;;57.47;2.20;;;19.90;1.00;;;;;;5073936;28;20475;-74
2021/08/09 08:51:33;;;;;;;57.73;2.03;;;20.10;1.00;;;;;;5073929;28;20472;-74
2021/08/09 08:54:01;;;;;;;57.67;2.40;;;20.30;1.00;;;;;;5073933;28;20484;-74
2021/08/09 08:56:29;;;;;;;57.40;2.17;;;20.50;1.00;;;;;;5073587;28;20856;-74
2021/08/09 08:58:56;;;;;;;58.67;2.67;;;20.60;1.00;;;;;;5073713;28;20827;-74
2021/08/09 09:01:41;;;;;;;57.90;2.20;;;20.70;1.00;;;;;;5073254;28;20475;-74
2021/08/09 09:04:29;;;;;;;57.67;2.13;;;20.80;1.00;;;;;;5073742;28;20449;-74
2021/08/09 09:07:01;;;;;;;58.00;1.90;;;20.90;1.00;;;;;;5070210;28;20823;-73
2021/08/09 09:09:30;;;;;;;57.63;2.03;;;21.00;1.00;;;;;;5073511;28;20546;-74
2021/08/09 09:11:57;;;;;;;57.57;2.30;;;21.10;1.00;;;;;;5073560;28;20553;-74
2021/08/09 09:14:30;;;;;;;57.60;2.00;;;21.10;1.00;;;;;;5073683;28;20544;-75
2021/08/09 09:16:58;;;;;;;57.57;2.10;;;21.00;1.00;;;;;;5073401;28;20490;-75
2021/08/09 09:19:33;;;;;;;57.37;2.30;;;21.10;1.00;;;;;;5072972;28;20519;-75
2021/08/09 09:22:01;;;;;;;57.47;2.00;;;21.30;1.00;;;;;;5073239;28;21011;-75
2021/08/09 09:24:29;;;;;;;57.80;2.30;;;21.60;1.00;;;;;;5073286;28;20487;-75
2021/08/09 09:26:57;;;;;;;57.80;2.10;;;21.80;1.00;;;;;;5073325;28;20537;-72
2021/08/09 09:29:26;;;;;;;57.60;2.20;;;22.20;1.00;;;;;;5072872;28;20501;-74
2021/08/09 09:31:54;;;;;;;57.70;2.00;;;22.60;1.00;;;;;;5073038;28;20467;-74
2021/08/09 09:34:22;;;;;;;57.93;2.17;;;23.00;1.00;;;;;;5073266;28;20539;-74
2021/08/09 09:36:53;;;;;;;57.90;2.30;;;23.40;1.00;;;;;;5073096;28;20862;-73
2021/08/09 09:39:32;;;;;;;57.80;2.40;;;23.60;1.00;;;;;;5072449;28;20534;-74
2021/08/09 09:42:01;;;;;;;57.73;2.10;;;23.80;1.00;;;;;;5072825;28;20471;-74
2021/08/09 09:44:30;;;;;;;57.80;2.00;;;23.80;1.00;;;;;;5073054;28;20534;-74
2021/08/09 09:47:23;;;;;;;57.80;2.10;;;23.70;1.00;;;;;;5072949;28;20444;-74
2021/08/09 09:49:51;;;;;;;57.27;2.10;;;23.80;1.00;;;;;;5072574;28;20489;-74
2021/08/09 09:52:35;;;;;;;57.67;2.20;;;23.70;1.00;;;;;;5072621;28;20988;-74
2021/08/09 09:55:06;;;;;;;57.60;2.00;;;23.60;1.00;;;;;;5072866;28;20501;-74
2021/08/09 09:57:34;;;;;;;58.10;2.40;;;23.50;1.00;;;;;;5072619;28;20483;-73
2021/08/09 10:00:01;;;;;;;57.60;2.00;;;23.50;1.00;;;;;;5072364;28;20447;-74
2021/08/09 10:02:28;;;;;;;57.60;2.00;;;23.60;1.00;;;;;;5072494;28;20528;-74
2021/08/09 10:04:56;;;;;;;58.10;2.20;;;23.70;1.00;;;;;;5072535;28;20824;-73
2021/08/09 10:07:25;;;;;;;57.60;2.13;;;23.80;1.00;;;;;;5072218;28;20478;-73
2021/08/09 10:09:55;;;;;;;57.80;2.40;;;23.90;1.00;;;;;;5072286;28;20489;-73
2021/08/09 10:12:29;;;;;;;57.53;2.10;;;24.10;1.00;;;;;;5072626;28;20467;-73
2021/08/09 10:14:56;;;;;;;57.57;2.13;;;24.30;1.00;;;;;;5072463;28;20447;-74
2021/08/09 10:17:24;;;;;;;57.57;1.93;;;24.70;1.00;;;;;;5072121;28;20511;-74
2021/08/09 10:19:54;;;;;;;57.50;1.80;;;25.30;1.00;;;;;;5071845;28;20532;-74
2021/08/09 10:22:22;;;;;;;57.37;2.00;;;26.20;1.00;;;;;;5072049;28;20577;-74
2021/08/09 10:24:51;;;;;;;57.67;2.00;;;26.80;1.00;;;;;;5072295;28;20479;-73
2021/08/09 10:27:38;;;;;;;57.60;1.90;;;27.40;1.00;;;;;;5072170;28;20446;-74
2021/08/09 10:30:20;;;;;;;57.80;2.00;;;27.30;1.00;;;;;;5071547;28;20538;-74
2021/08/09 10:32:50;;;;;;;57.50;1.90;;;27.70;1.00;;;;;;5072272;28;20484;-74
2021/08/09 10:36:04;;;;;;;57.70;2.00;;;28.80;1.00;;;;;;5072804;28;20439;-73
2021/08/09 10:38:36;;;;;;;57.63;2.00;;;30.00;1.00;;;;;;5071928;28;20435;-74
2021/08/09 10:41:33;;;;;;;57.57;1.90;;;30.50;1.00;;;;;;5071786;28;20560;-72
2021/08/09 10:44:25;;;;;;;57.57;1.90;;;30.80;1.00;;;;;;5072018;28;20870;-72
2021/08/09 10:46:55;;;;;;;57.03;1.70;;;31.70;1.00;;;;;;5072195;28;20951;-74
2021/08/09 10:49:50;;;;;;;57.27;1.90;;;32.80;1.00;;;;;;5071559;28;20526;-74
2021/08/09 10:52:39;;;;;;;57.03;1.80;;;33.90;1.00;;;;;;5071112;28;21017;-74
2021/08/09 10:55:46;;;;;;;57.10;1.90;;;34.50;1.00;;;;;;5071665;28;20534;-72
2021/08/09 10:58:51;;;;;;;57.17;1.93;;;35.10;1.00;;;;;;5071831;28;20522;-72
2021/08/09 11:01:19;;;;;;;56.90;1.80;;;35.00;1.00;;;;;;5071303;28;20477;-72
2021/08/09 11:04:16;;;;;;;57.23;2.00;;;34.90;1.00;;;;;;5071686;28;20482;-72
2021/08/09 11:06:50;;;;;;;57.00;1.90;;;34.70;1.00;;;;;;5071666;28;20447;-73
2021/08/09 11:09:41;;;;;;;57.07;1.87;;;33.90;1.00;;;;;;5071515;28;20446;-73
2021/08/09 11:12:12;;;;;;;56.87;1.83;;;34.30;1.00;;;;;;5071700;28;20475;-74
2021/08/09 11:15:11;;;;;;;56.90;1.90;;;34.50;1.00;;;;;;5071856;28;20447;-73
2021/08/09 11:17:54;;;;;;;57.07;1.87;;;34.30;1.00;;;;;;5071528;28;20521;-74
2021/08/09 11:20:27;;;;;;;56.87;1.90;;;34.40;1.00;;;;;;5069461;28;20453;-73
2021/08/09 11:23:09;;;;;;;57.17;1.80;;;34.80;1.00;;;;;;5071700;28;20543;-73
2021/08/09 11:25:38;;;;;;;57.40;1.97;;;34.60;1.00;;;;;;5072049;28;20443;-74
2021/08/09 11:28:08;;;;;;;57.13;2.10;;;34.20;1.00;;;;;;5071506;28;20439;-73
2021/08/09 11:30:47;;;;;;;57.47;2.00;;;33.40;1.00;;;;;;5071038;28;20525;-73
2021/08/09 11:33:23;;;;;;;57.43;2.17;;;32.10;1.00;;;;;;5071657;28;20478;-73
2021/08/09 11:35:51;;;;;;;57.37;2.00;;;30.90;1.00;;;;;;5071471;28;20445;-73
2021/08/09 11:38:19;;;;;;;57.40;1.87;;;30.50;1.00;;;;;;5071337;28;20535;-72
2021/08/09 11:40:48;;;;;;;57.23;1.90;;;30.50;1.00;;;;;;5070964;28;20463;-73
2021/08/09 11:43:16;;;;;;;57.47;2.10;;;31.50;1.00;;;;;;5071301;28;21018;-73
2021/08/09 11:45:43;;;;;;;57.37;2.10;;;31.40;1.00;;;;;;5071418;28;20487;-73
2021/08/09 11:48:10;;;;;;;57.47;2.20;;;30.60;1.00;;;;;;5071390;28;20472;-73
2021/08/09 11:50:40;;;;;;;57.57;2.30;;;29.70;1.00;;;;;;5071014;28;20575;-73
2021/08/09 11:53:10;;;;;;;57.47;2.10;;;28.90;1.00;;;;;;5071416;28;20457;-73
2021/08/09 11:55:37;;;;;;;57.60;2.07;;;28.20;1.00;;;;;;5071215;28;20501;-73
2021/08/09 11:58:04;;;;;;;57.57;2.10;;;27.70;1.00;;;;;;5071234;28;20483;-74
2021/08/09 12:00:43;;;;;;;57.70;2.10;;;27.30;1.00;;;;;;5071065;28;20927;-73
2021/08/09 12:03:16;;;;;;;60.30;2.17;;;27.40;1.00;;;;;;5072922;28;20997;-74
2021/08/09 12:05:43;;;;;;;57.27;2.00;;;29.20;1.00;;;;;;5075034;28;20449;-74
2021/08/09 12:08:12;;;;;;;59.10;4.30;;;31.30;1.00;;;;;;5074632;28;20445;-73
2021/08/09 12:10:40;;;;;;;57.17;1.90;;;32.80;1.00;;;;;;5074321;28;21081;-74
2021/08/09 12:13:23;;;;;;;57.40;2.00;;;33.70;1.00;;;;;;5074981;28;20536;-74
2021/08/09 12:16:13;;;;;;;57.27;2.10;;;34.50;1.00;;;;;;5074652;28;20449;-74
2021/08/09 12:18:51;;;;;;;56.77;1.90;;;35.40;1.00;;;;;;5074659;28;20486;-74
2021/08/09 12:21:18;;;;;;;56.87;1.80;;;35.70;1.00;;;;;;5074108;28;20482;-74
2021/08/09 12:23:55;;;;;;;56.97;1.83;;;35.20;1.00;;;;;;5074735;28;20453;-74
2021/08/09 12:26:23;;;;;;;56.93;1.90;;;35.40;1.00;;;;;;5074427;28;20828;-74
2021/08/09 12:28:52;;;;;;;56.87;1.60;;;35.80;1.00;;;;;;5074307;28;20887;-74
2021/08/09 12:31:35;;;;;;;56.77;1.73;;;35.60;1.00;;;;;;5073933;28;20562;-73
2021/08/09 12:34:04;;;;;;;57.07;1.93;;;35.90;1.00;;;;;;5073157;28;20979;-74
2021/08/09 12:36:31;;;;;;;57.80;2.87;;;35.40;1.00;;;;;;5074232;28;20451;-73
2021/08/09 12:39:00;;;;;;;56.87;1.77;;;35.70;1.00;;;;;;5074060;28;20530;-73
2021/08/09 12:41:28;;;;;;;56.93;1.80;;;36.50;1.00;;;;;;5073858;28;20569;-73
2021/08/09 12:43:56;;;;;;;57.43;1.97;;;37.10;1.00;;;;;;5074470;28;20451;-72
2021/08/09 12:46:23;;;;;;;56.97;1.90;;;37.70;1.00;;;;;;5074129;28;20443;-73
2021/08/09 12:48:51;;;;;;;56.80;1.90;;;37.40;1.00;;;;;;5074060;28;20531;-74
2021/08/09 12:51:19;;;;;;;56.90;1.80;;;36.90;1.00;;;;;;5073617;28;20554;-73
2021/08/09 12:53:46;;;;;;;57.00;2.10;;;36.90;1.00;;;;;;5073897;28;20550;-73
2021/08/09 12:56:15;;;;;;;56.70;1.80;;;36.50;1.00;;;;;;5073726;28;20542;-73
2021/08/09 12:58:41;;;;;;;57.00;1.70;;;35.40;1.00;;;;;;5074167;28;20593;-73
2021/08/09 13:01:09;;;;;;;57.27;2.00;;;34.20;1.00;;;;;;5073516;28;20506;-73
2021/08/09 13:03:36;;;;;;;57.13;2.00;;;33.00;1.00;;;;;;5073627;28;20530;-73